createdAt,value
2018-10-06T00:00:20.938Z,10.08
2018-10-06T00:02:49.907Z,10.04
2018-10-06T00:05:18.941Z,10.05
2018-10-06T00:07:48.373Z,10.01
2018-10-06T00:10:17.320Z,9.98
2018-10-06T00:12:46.223Z,9.89
2018-10-06T00:15:15.139Z,9.91
2018-10-06T00:17:43.944Z,9.89
2018-10-06T00:20:12.883Z,9.82
2018-10-06T00:22:41.719Z,9.73
2018-10-06T00:25:10.598Z,9.63
2018-10-06T00:27:39.453Z,9.61
2018-10-06T00:30:08.455Z,9.47
2018-10-06T00:32:37.343Z,9.49
2018-10-06T00:35:06.307Z,9.67
2018-10-06T00:37:35.130Z,9.64
2018-10-06T00:40:04.127Z,9.60
2018-10-06T00:42:32.981Z,9.57
2018-10-06T00:45:08.049Z,9.54
2018-10-06T00:47:36.891Z,9.65
2018-10-06T00:50:05.807Z,9.48
2018-10-06T00:52:34.627Z,9.48
2018-10-06T00:55:03.617Z,9.47
2018-10-06T00:57:32.441Z,9.44
2018-10-06T01:00:01.423Z,9.46
2018-10-06T01:02:30.325Z,9.39
2018-10-06T01:04:59.162Z,9.21
2018-10-06T01:07:28.153Z,9.26
2018-10-06T01:09:58.085Z,9.26
2018-10-06T01:12:27.509Z,9.24
2018-10-06T01:14:56.403Z,9.25
2018-10-06T01:17:25.331Z,9.14
2018-10-06T01:19:54.236Z,9.19
2018-10-06T01:22:23.143Z,9.15
2018-10-06T01:24:52.012Z,9.08
2018-10-06T01:27:20.935Z,9.11
2018-10-06T01:29:49.774Z,9.22
2018-10-06T01:32:18.654Z,9.22
2018-10-06T01:34:47.480Z,9.11
2018-10-06T01:37:16.383Z,9.02
2018-10-06T01:39:45.279Z,9.07
2018-10-06T01:42:14.164Z,9.04
2018-10-06T01:44:43.089Z,9.14
2018-10-06T01:47:12.015Z,9.11
2018-10-06T01:49:40.853Z,9.06
2018-10-06T01:52:09.741Z,9.19
2018-10-06T01:54:38.602Z,9.23
2018-10-06T01:57:07.873Z,8.96
2018-10-06T01:59:36.719Z,8.72
2018-10-06T02:02:05.811Z,8.68
2018-10-06T02:04:34.699Z,8.71
2018-10-06T02:07:03.532Z,8.70
2018-10-06T02:09:32.469Z,8.68
2018-10-06T02:12:01.380Z,8.70
2018-10-06T02:14:30.272Z,8.70
2018-10-06T02:16:59.085Z,8.69
2018-10-06T02:19:28.945Z,8.63
2018-10-06T02:21:57.890Z,8.66
2018-10-06T02:24:26.718Z,8.63
2018-10-06T02:26:55.538Z,8.58
2018-10-06T02:29:24.356Z,8.55
2018-10-06T02:31:53.213Z,8.55
2018-10-06T02:34:22.434Z,8.61
2018-10-06T02:36:51.357Z,8.59
2018-10-06T02:39:20.170Z,8.63
2018-10-06T02:41:48.989Z,8.59
2018-10-06T02:44:17.860Z,8.53
2018-10-06T02:46:46.789Z,8.48
2018-10-06T02:49:15.665Z,8.37
2018-10-06T02:51:44.460Z,8.20
2018-10-06T02:54:13.376Z,8.33
2018-10-06T02:56:42.273Z,8.42
2018-10-06T02:59:11.439Z,8.42
2018-10-06T03:01:40.332Z,8.45
2018-10-06T03:04:09.179Z,8.42
2018-10-06T03:06:38.031Z,8.33
2018-10-06T03:09:08.283Z,8.28
2018-10-06T03:11:37.281Z,8.25
2018-10-06T03:14:06.347Z,8.25
2018-10-06T03:16:35.242Z,8.31
2018-10-06T03:19:04.078Z,8.25
2018-10-06T03:21:32.922Z,8.33
2018-10-06T03:24:01.806Z,8.26
2018-10-06T03:26:30.670Z,8.24
2018-10-06T03:28:59.469Z,8.25
2018-10-06T03:31:28.364Z,8.06
2018-10-06T03:33:57.175Z,8.15
2018-10-06T03:36:26.096Z,8.11
2018-10-06T03:38:54.951Z,8.24
2018-10-06T03:41:23.849Z,8.02
2018-10-06T03:43:52.661Z,8.06
2018-10-06T03:46:21.625Z,8.11
2018-10-06T03:48:50.524Z,8.27
2018-10-06T03:51:19.424Z,8.15
2018-10-06T03:53:48.305Z,8.33
2018-10-06T03:56:17.220Z,8.05
2018-10-06T03:58:46.092Z,8.04
2018-10-06T04:01:15.007Z,8.00
2018-10-06T04:03:43.894Z,7.81
2018-10-06T04:06:12.716Z,7.67
2018-10-06T04:08:41.592Z,7.69
2018-10-06T04:11:10.462Z,7.69
2018-10-06T04:13:41.280Z,7.74
2018-10-06T04:16:10.416Z,7.81
2018-10-06T04:18:39.573Z,7.75
2018-10-06T04:21:08.456Z,7.79
2018-10-06T04:23:37.336Z,7.67
2018-10-06T04:26:06.702Z,7.76
2018-10-06T04:28:35.644Z,7.80
2018-10-06T04:31:04.527Z,7.79
2018-10-06T04:33:33.441Z,7.67
2018-10-06T04:36:02.298Z,7.47
2018-10-06T04:38:31.436Z,7.39
2018-10-06T04:41:00.416Z,7.48
2018-10-06T04:43:35.392Z,7.39
2018-10-06T04:46:04.246Z,7.48
2018-10-06T04:48:33.144Z,7.51
2018-10-06T04:51:02.011Z,7.56
2018-10-06T04:53:31.127Z,7.58
2018-10-06T04:56:00.198Z,7.48
2018-10-06T04:58:29.108Z,7.39
2018-10-06T05:00:57.982Z,7.37
2018-10-06T05:03:26.800Z,7.44
2018-10-06T05:05:55.688Z,7.42
2018-10-06T05:08:24.528Z,7.49
2018-10-06T05:10:53.393Z,7.49
2018-10-06T05:13:22.442Z,7.47
2018-10-06T05:15:51.319Z,7.54
2018-10-06T05:18:20.136Z,7.70
2018-10-06T05:20:48.959Z,7.70
2018-10-06T05:23:17.843Z,7.59
2018-10-06T05:25:46.807Z,7.65
2018-10-06T05:28:15.838Z,7.53
2018-10-06T05:30:44.699Z,7.60
2018-10-06T05:33:13.575Z,7.59
2018-10-06T05:35:42.431Z,7.64
2018-10-06T05:38:11.457Z,7.68
2018-10-06T05:40:41.100Z,7.71
2018-10-06T05:43:09.977Z,7.64
2018-10-06T05:45:38.877Z,7.60
2018-10-06T05:48:07.720Z,7.58
2018-10-06T05:50:36.727Z,7.61
2018-10-06T05:53:05.641Z,7.12
2018-10-06T05:55:34.525Z,7.06
2018-10-06T05:58:03.354Z,7.01
2018-10-06T06:00:32.347Z,7.08
2018-10-06T06:03:01.283Z,7.00
2018-10-06T06:05:30.161Z,7.10
2018-10-06T06:07:59.031Z,7.05
2018-10-06T06:10:27.868Z,7.11
2018-10-06T06:12:56.768Z,7.10
2018-10-06T06:15:25.739Z,7.14
2018-10-06T06:17:54.589Z,7.17
2018-10-06T06:20:23.457Z,7.25
2018-10-06T06:22:52.655Z,7.33
2018-10-06T06:25:21.484Z,7.47
2018-10-06T06:27:50.405Z,7.73
2018-10-06T06:30:19.280Z,7.63
2018-10-06T06:32:48.163Z,7.74
2018-10-06T06:35:17.034Z,7.82
2018-10-06T06:37:45.977Z,7.94
2018-10-06T06:40:14.871Z,7.98
2018-10-06T06:42:43.798Z,8.02
2018-10-06T06:45:13.531Z,8.16
2018-10-06T06:47:42.393Z,8.28
2018-10-06T06:50:11.240Z,8.52
2018-10-06T06:52:40.231Z,8.69
2018-10-06T06:55:09.075Z,8.84
2018-10-06T06:57:38.220Z,8.78
2018-10-06T07:00:07.271Z,8.81
2018-10-06T07:02:36.110Z,9.02
2018-10-06T07:05:05.149Z,9.15
2018-10-06T07:07:34.103Z,9.59
2018-10-06T07:10:03.013Z,9.71
2018-10-06T07:12:31.984Z,9.68
2018-10-06T07:15:00.856Z,9.67
2018-10-06T07:17:29.750Z,9.88
2018-10-06T07:19:59.335Z,10.16
2018-10-06T07:22:29.326Z,10.26
2018-10-06T07:24:58.270Z,10.43
2018-10-06T07:27:27.130Z,10.48
2018-10-06T07:29:56.072Z,10.51
2018-10-06T07:32:25.244Z,10.59
2018-10-06T07:34:54.371Z,10.76
2018-10-06T07:37:24.887Z,10.85
2018-10-06T07:39:55.114Z,11.01
2018-10-06T07:42:26.378Z,11.03
2018-10-06T07:44:56.962Z,11.29
2018-10-06T07:47:27.158Z,11.48
2018-10-06T07:49:57.377Z,11.69
2018-10-06T07:52:27.407Z,11.83
2018-10-06T07:54:57.430Z,11.89
2018-10-06T07:57:27.757Z,12.12
2018-10-06T07:59:59.541Z,12.25
2018-10-06T08:02:30.405Z,12.21
2018-10-06T08:05:00.511Z,12.22
2018-10-06T08:07:31.117Z,12.51
2018-10-06T08:10:01.496Z,12.60
2018-10-06T08:12:32.424Z,12.54
2018-10-06T08:15:02.692Z,12.68
2018-10-06T08:17:33.382Z,13.04
2018-10-06T08:20:04.151Z,13.27
2018-10-06T08:22:34.361Z,13.25
2018-10-06T08:25:03.326Z,13.46
2018-10-06T08:27:32.244Z,13.64
2018-10-06T08:30:01.104Z,13.83
2018-10-06T08:32:29.996Z,13.96
2018-10-06T08:34:58.893Z,14.19
2018-10-06T08:37:27.806Z,14.25
2018-10-06T08:39:56.634Z,14.47
2018-10-06T08:42:25.540Z,14.59
2018-10-06T08:44:54.413Z,14.68
2018-10-06T08:47:24.516Z,14.80
2018-10-06T08:49:53.472Z,14.79
2018-10-06T08:52:22.573Z,14.96
2018-10-06T08:54:52.009Z,15.07
2018-10-06T08:57:20.912Z,15.06
2018-10-06T08:59:49.813Z,15.17
2018-10-06T09:02:18.721Z,15.26
2018-10-06T09:04:47.554Z,15.29
2018-10-06T09:07:16.396Z,15.26
2018-10-06T09:09:45.327Z,15.31
2018-10-06T09:12:14.185Z,15.35
2018-10-06T09:14:43.085Z,15.50
2018-10-06T09:17:11.966Z,15.61
2018-10-06T09:19:40.877Z,15.71
2018-10-06T09:22:09.720Z,15.79
2018-10-06T09:24:38.680Z,15.84
2018-10-06T09:27:08.174Z,15.86
2018-10-06T09:29:37.145Z,16.00
2018-10-06T09:32:06.095Z,16.03
2018-10-06T09:34:35.198Z,16.20
2018-10-06T09:37:04.268Z,16.24
2018-10-06T09:39:33.168Z,16.30
2018-10-06T09:42:02.094Z,16.37
2018-10-06T09:44:30.930Z,16.34
2018-10-06T09:46:59.830Z,16.46
2018-10-06T09:49:29.023Z,16.49
2018-10-06T09:51:58.032Z,16.46
2018-10-06T09:54:26.998Z,16.61
2018-10-06T09:56:56.845Z,16.74
2018-10-06T09:59:26.303Z,16.84
2018-10-06T10:02:01.624Z,16.83
2018-10-06T10:04:30.559Z,17.15
2018-10-06T10:06:59.523Z,17.18
2018-10-06T10:09:28.861Z,17.21
2018-10-06T10:11:57.813Z,17.21
2018-10-06T10:14:26.803Z,17.24
2018-10-06T10:16:55.826Z,17.33
2018-10-06T10:19:25.129Z,17.32
2018-10-06T10:21:54.285Z,17.48
2018-10-06T10:24:23.194Z,17.56
2018-10-06T10:26:52.201Z,17.64
2018-10-06T10:29:21.224Z,17.82
2018-10-06T10:31:50.604Z,17.64
2018-10-06T10:34:19.605Z,17.81
2018-10-06T10:36:48.532Z,17.91
2018-10-06T10:39:17.385Z,18.18
2018-10-06T10:41:46.239Z,18.33
2018-10-06T10:44:15.231Z,18.25
2018-10-06T10:46:44.151Z,18.23
2018-10-06T10:49:13.425Z,18.20
2018-10-06T10:51:42.368Z,18.46
2018-10-06T10:54:11.216Z,18.66
2018-10-06T10:56:40.181Z,18.44
2018-10-06T10:59:09.082Z,18.57
2018-10-06T11:01:37.985Z,18.69
2018-10-06T11:04:06.891Z,18.74
2018-10-06T11:06:35.711Z,18.73
2018-10-06T11:09:05.888Z,18.82
2018-10-06T11:11:34.736Z,18.82
2018-10-06T11:14:03.907Z,18.95
2018-10-06T11:16:32.768Z,19.04
2018-10-06T11:19:01.747Z,19.11
2018-10-06T11:21:30.626Z,19.21
2018-10-06T11:23:59.516Z,19.18
2018-10-06T11:26:28.474Z,19.36
2018-10-06T11:28:57.335Z,19.22
2018-10-06T11:31:26.247Z,19.37
2018-10-06T11:33:55.134Z,19.23
2018-10-06T11:36:24.226Z,19.41
2018-10-06T11:38:53.115Z,19.46
2018-10-06T11:41:21.917Z,19.62
2018-10-06T11:43:50.845Z,19.60
2018-10-06T11:46:19.716Z,19.55
2018-10-06T11:48:48.594Z,19.53
2018-10-06T11:51:17.639Z,19.69
2018-10-06T11:53:46.541Z,19.71
2018-10-06T11:56:15.773Z,19.83
2018-10-06T11:58:45.534Z,19.81
2018-10-06T12:01:15.125Z,19.83
2018-10-06T12:03:44.109Z,20.05
2018-10-06T12:06:12.981Z,20.01
2018-10-06T12:08:41.983Z,20.08
2018-10-06T12:11:10.823Z,19.97
2018-10-06T12:13:39.708Z,20.14
2018-10-06T12:16:08.631Z,20.32
2018-10-06T12:18:37.448Z,20.14
2018-10-06T12:21:06.367Z,20.27
2018-10-06T12:23:35.277Z,20.40
2018-10-06T12:26:04.229Z,20.21
2018-10-06T12:28:33.111Z,20.23
2018-10-06T12:31:02.659Z,20.24
2018-10-06T12:33:31.508Z,20.22
2018-10-06T12:36:00.585Z,20.20
2018-10-06T12:38:29.372Z,20.27
2018-10-06T12:40:58.415Z,20.40
2018-10-06T12:43:27.272Z,20.46
2018-10-06T12:45:56.213Z,20.43
2018-10-06T12:48:25.047Z,20.38
2018-10-06T12:50:53.933Z,20.51
2018-10-06T12:53:23.148Z,20.65
2018-10-06T12:55:51.987Z,20.84
2018-10-06T12:58:20.818Z,20.63
2018-10-06T13:00:49.722Z,20.71
2018-10-06T13:03:18.576Z,20.80
2018-10-06T13:05:47.502Z,20.63
2018-10-06T13:08:16.348Z,20.68
2018-10-06T13:10:45.166Z,20.76
2018-10-06T13:13:14.090Z,20.64
2018-10-06T13:15:43.299Z,20.64
2018-10-06T13:18:12.481Z,20.89
2018-10-06T13:20:41.328Z,20.86
2018-10-06T13:23:10.314Z,20.88
2018-10-06T13:25:39.127Z,21.12
2018-10-06T13:28:08.238Z,21.00
2018-10-06T13:30:37.099Z,21.24
2018-10-06T13:33:06.056Z,21.09
2018-10-06T13:35:34.891Z,21.05
2018-10-06T13:38:03.785Z,21.04
2018-10-06T13:40:32.619Z,20.99
2018-10-06T13:43:01.549Z,21.15
2018-10-06T13:45:36.414Z,21.13
2018-10-06T13:48:05.616Z,21.01
2018-10-06T13:50:34.423Z,21.01
2018-10-06T13:53:03.385Z,20.89
2018-10-06T13:55:32.200Z,21.07
2018-10-06T13:58:01.165Z,20.99
2018-10-06T14:00:30.035Z,21.01
2018-10-06T14:02:59.277Z,21.12
2018-10-06T14:05:28.235Z,21.05
2018-10-06T14:07:57.110Z,21.15
2018-10-06T14:10:25.985Z,21.13
2018-10-06T14:12:54.938Z,21.15
2018-10-06T14:15:23.798Z,21.11
2018-10-06T14:17:52.789Z,21.22
2018-10-06T14:20:21.861Z,21.07
2018-10-06T14:22:50.655Z,21.15
2018-10-06T14:25:19.704Z,21.12
2018-10-06T14:27:50.105Z,21.11
2018-10-06T14:30:19.120Z,21.05
2018-10-06T14:32:48.256Z,21.03
2018-10-06T14:35:17.769Z,20.92
2018-10-06T14:37:46.782Z,21.02
2018-10-06T14:40:15.784Z,21.03
2018-10-06T14:42:44.800Z,21.11
2018-10-06T14:45:13.628Z,20.96
2018-10-06T14:47:42.985Z,20.92
2018-10-06T14:50:12.017Z,20.84
2018-10-06T14:52:40.891Z,21.01
2018-10-06T14:55:10.050Z,20.99
2018-10-06T14:57:39.183Z,20.89
2018-10-06T15:00:08.955Z,20.95
2018-10-06T15:02:38.089Z,20.96
2018-10-06T15:05:06.999Z,20.98
2018-10-06T15:07:36.285Z,20.87
2018-10-06T15:10:05.604Z,20.83
2018-10-06T15:12:34.488Z,20.83
2018-10-06T15:15:03.475Z,20.72
2018-10-06T15:17:32.341Z,20.81
2018-10-06T15:20:01.356Z,20.59
2018-10-06T15:22:30.367Z,20.60
2018-10-06T15:25:00.038Z,20.44
2018-10-06T15:27:28.910Z,20.45
2018-10-06T15:29:57.739Z,20.38
2018-10-06T15:32:26.659Z,20.34
2018-10-06T15:34:55.514Z,20.27
2018-10-06T15:37:24.480Z,20.23
2018-10-06T15:39:53.460Z,20.12
2018-10-06T15:42:22.329Z,20.18
2018-10-06T15:44:51.287Z,20.15
2018-10-06T15:47:20.179Z,20.09
2018-10-06T15:49:49.001Z,20.12
2018-10-06T15:52:17.906Z,20.18
2018-10-06T15:54:46.703Z,20.23
2018-10-06T15:57:15.641Z,20.32
2018-10-06T15:59:44.464Z,20.19
2018-10-06T16:02:13.505Z,20.07
2018-10-06T16:04:42.388Z,19.86
2018-10-06T16:07:11.198Z,19.74
2018-10-06T16:09:40.071Z,19.62
2018-10-06T16:12:08.921Z,19.59
2018-10-06T16:14:37.847Z,19.44
2018-10-06T16:17:06.789Z,19.33
2018-10-06T16:19:35.671Z,19.25
2018-10-06T16:22:04.657Z,19.17
2018-10-06T16:24:33.504Z,19.10
2018-10-06T16:27:02.304Z,18.98
2018-10-06T16:29:31.166Z,18.89
2018-10-06T16:31:59.932Z,18.78
2018-10-06T16:34:28.913Z,18.66
2018-10-06T16:36:57.742Z,18.50
2018-10-06T16:39:26.569Z,18.39
2018-10-06T16:41:55.401Z,18.37
2018-10-06T16:44:24.271Z,18.34
2018-10-06T16:46:53.224Z,18.33
2018-10-06T16:49:22.406Z,18.29
2018-10-06T16:51:51.362Z,18.13
2018-10-06T16:54:20.241Z,17.98
2018-10-06T16:56:49.043Z,17.84
2018-10-06T16:59:17.884Z,17.75
2018-10-06T17:01:46.805Z,17.66
2018-10-06T17:04:15.638Z,17.60
2018-10-06T17:06:45.305Z,17.48
2018-10-06T17:09:14.176Z,17.37
2018-10-06T17:11:43.237Z,17.37
2018-10-06T17:14:12.140Z,17.21
2018-10-06T17:16:40.995Z,17.10
2018-10-06T17:19:09.847Z,17.03
2018-10-06T17:21:38.980Z,17.04
2018-10-06T17:24:08.005Z,16.90
2018-10-06T17:26:36.884Z,16.97
2018-10-06T17:29:05.751Z,16.81
2018-10-06T17:31:34.604Z,16.93
2018-10-06T17:34:03.514Z,16.81
2018-10-06T17:36:32.363Z,16.70
2018-10-06T17:39:01.240Z,16.66
2018-10-06T17:41:30.120Z,16.62
2018-10-06T17:44:00.015Z,16.58
2018-10-06T17:46:29.041Z,16.54
2018-10-06T17:48:57.856Z,16.50
2018-10-06T17:51:26.689Z,16.48
2018-10-06T17:53:55.484Z,16.42
2018-10-06T17:56:24.302Z,16.46
2018-10-06T17:58:53.260Z,16.44
2018-10-06T18:01:22.106Z,16.45
2018-10-06T18:03:50.986Z,16.41
2018-10-06T18:06:19.813Z,16.39
2018-10-06T18:08:48.764Z,16.34
2018-10-06T18:11:17.946Z,16.33
2018-10-06T18:13:47.100Z,16.30
2018-10-06T18:16:16.226Z,16.25
2018-10-06T18:18:45.286Z,16.25
2018-10-06T18:21:14.226Z,16.27
2018-10-06T18:23:43.727Z,16.43
2018-10-06T18:26:12.863Z,16.36
2018-10-06T18:28:42.649Z,16.38
2018-10-06T18:31:11.462Z,16.27
2018-10-06T18:33:40.818Z,16.22
2018-10-06T18:36:10.064Z,16.20
2018-10-06T18:38:39.192Z,16.25
2018-10-06T18:41:08.669Z,16.23
2018-10-06T18:43:37.564Z,16.25
2018-10-06T18:46:06.423Z,16.21
2018-10-06T18:48:35.439Z,16.18
2018-10-06T18:51:04.270Z,16.19
2018-10-06T18:53:33.555Z,16.15
2018-10-06T18:56:02.392Z,16.10
2018-10-06T18:58:31.479Z,16.12
2018-10-06T19:01:00.447Z,16.02
2018-10-06T19:03:29.756Z,15.98
2018-10-06T19:05:58.563Z,15.90
2018-10-06T19:08:27.388Z,15.88
2018-10-06T19:10:56.874Z,15.91
2018-10-06T19:13:25.885Z,15.84
2018-10-06T19:15:54.758Z,15.80
2018-10-06T19:18:23.776Z,15.89
2018-10-06T19:20:52.640Z,15.87
2018-10-06T19:23:21.550Z,15.87
2018-10-06T19:25:51.091Z,15.78
2018-10-06T19:28:19.847Z,15.86
2018-10-06T19:30:48.993Z,15.86
2018-10-06T19:33:18.102Z,15.81
2018-10-06T19:35:46.944Z,15.75
2018-10-06T19:38:16.011Z,15.98
2018-10-06T19:40:44.893Z,16.02
2018-10-06T19:43:14.513Z,16.07
2018-10-06T19:45:43.448Z,16.05
2018-10-06T19:48:12.252Z,15.94
2018-10-06T19:50:41.461Z,15.88
2018-10-06T19:53:10.310Z,15.88
2018-10-06T19:55:39.354Z,15.92
2018-10-06T19:58:08.522Z,15.74
2018-10-06T20:00:37.364Z,15.85
2018-10-06T20:03:06.466Z,15.82
2018-10-06T20:05:35.600Z,15.80
2018-10-06T20:08:04.548Z,15.74
2018-10-06T20:10:33.357Z,15.94
2018-10-06T20:13:02.561Z,15.87
2018-10-06T20:15:31.863Z,15.86
2018-10-06T20:18:00.685Z,15.89
2018-10-06T20:20:29.513Z,15.98
2018-10-06T20:22:58.351Z,16.05
2018-10-06T20:25:27.175Z,16.05
2018-10-06T20:27:56.191Z,15.97
2018-10-06T20:30:25.641Z,16.04
2018-10-06T20:33:01.423Z,16.00
2018-10-06T20:35:30.229Z,15.96
2018-10-06T20:37:59.221Z,15.81
2018-10-06T20:40:28.030Z,15.79
2018-10-06T20:42:56.930Z,15.67
2018-10-06T20:45:31.688Z,15.66
2018-10-06T20:48:00.657Z,15.57
2018-10-06T20:50:29.493Z,15.40
2018-10-06T20:52:58.568Z,15.18
2018-10-06T20:55:27.539Z,15.07
2018-10-06T20:57:56.428Z,15.20
2018-10-06T21:00:25.403Z,15.27
2018-10-06T21:02:54.289Z,15.23
2018-10-06T21:05:23.109Z,15.17
2018-10-06T21:07:52.372Z,14.92
2018-10-06T21:10:21.218Z,14.71
2018-10-06T21:12:50.111Z,14.66
2018-10-06T21:15:19.101Z,14.55
2018-10-06T21:17:48.023Z,14.67
2018-10-06T21:20:16.879Z,14.71
2018-10-06T21:22:45.671Z,14.81
2018-10-06T21:25:14.607Z,14.68
2018-10-06T21:27:43.460Z,14.61
2018-10-06T21:30:12.319Z,14.54
2018-10-06T21:32:41.290Z,14.61
2018-10-06T21:35:10.247Z,14.54
2018-10-06T21:37:39.315Z,14.40
2018-10-06T21:40:08.247Z,14.33
2018-10-06T21:42:37.053Z,14.29
2018-10-06T21:45:06.389Z,14.22
2018-10-06T21:47:35.199Z,14.13
2018-10-06T21:50:04.219Z,14.29
2018-10-06T21:52:33.015Z,14.24
2018-10-06T21:55:01.900Z,14.26
2018-10-06T21:57:30.752Z,14.19
2018-10-06T21:59:59.662Z,14.12
2018-10-06T22:02:28.539Z,14.28
2018-10-06T22:04:57.368Z,14.25
2018-10-06T22:07:26.205Z,14.29
2018-10-06T22:09:55.059Z,14.34
2018-10-06T22:12:23.972Z,14.35
2018-10-06T22:14:52.916Z,14.25
2018-10-06T22:17:21.773Z,14.26
2018-10-06T22:19:50.703Z,14.51
2018-10-06T22:22:19.565Z,14.53
2018-10-06T22:24:48.752Z,14.59
2018-10-06T22:27:17.752Z,14.44
2018-10-06T22:29:46.627Z,14.47
2018-10-06T22:32:15.485Z,14.62
2018-10-06T22:34:44.329Z,14.54
2018-10-06T22:37:13.157Z,14.65
2018-10-06T22:39:42.133Z,14.63
2018-10-06T22:42:10.957Z,14.62
2018-10-06T22:44:39.837Z,14.62
2018-10-06T22:47:08.980Z,14.55
2018-10-06T22:49:37.844Z,14.48
2018-10-06T22:52:06.997Z,14.40
2018-10-06T22:54:35.837Z,14.46
2018-10-06T22:57:04.739Z,14.47
2018-10-06T22:59:33.602Z,14.36
2018-10-06T23:02:02.445Z,14.26
2018-10-06T23:04:31.668Z,14.24
2018-10-06T23:07:00.751Z,14.23
2018-10-06T23:09:29.610Z,14.17
2018-10-06T23:11:58.443Z,14.24
2018-10-06T23:14:27.347Z,14.15
2018-10-06T23:16:56.315Z,14.22
2018-10-06T23:19:25.207Z,14.12
2018-10-06T23:21:54.060Z,14.14
2018-10-06T23:24:22.958Z,14.17
2018-10-06T23:26:51.814Z,14.16
2018-10-06T23:29:20.791Z,13.92
2018-10-06T23:31:49.636Z,13.75
2018-10-06T23:34:18.488Z,13.55
2018-10-06T23:36:47.284Z,13.43
2018-10-06T23:39:16.129Z,13.50
2018-10-06T23:41:45.007Z,13.53
2018-10-06T23:44:13.851Z,13.51
2018-10-06T23:46:42.673Z,13.38
2018-10-06T23:49:11.575Z,13.41
2018-10-06T23:51:40.419Z,13.34
2018-10-06T23:54:09.737Z,13.01
2018-10-06T23:56:38.603Z,13.04
2018-10-06T23:59:07.668Z,13.09
